Terminal Aerodrome Forecast
Issued by NWS

Home | Current Version | Previous Version | Text Only | Print | Product List | Glossary On
Versions: 1 2 3 4 5 6 7 8 9 10 11 12
350
FTUS46 KHNX 191142
TAFBFL
TAF
KBFL 191142Z 1912/2012 32008KT P6SM VCSH OVC060
     FM191800 33012G22KT P6SM BKN040 BKN120
     FM200300 32005KT P6SM SKC=

USA.gov is the U.S. government's official web portal to all federal, state and local government web resources and services.